Time;durP1;ratioP1;P1;durP2;ratioP2;P2;SDS_P1;SDS_P2;PMS_P1;PMS_P2;Temp;Humidity;BMP_temperature;BMP_pressure;BME280_temperature;BME280_humidity;BME280_pressure;Samples;Min_cycle;Max_cycle;Signal;HPM_P1;HPM_P2
2021/11/03 00:01:17;;;;;;;4.20;1.80;;;;;;;13.37;75.40;99961.56;4984757;28;20137;-62
2021/11/03 00:03:47;;;;;;;6.38;2.50;;;;;;;13.34;75.46;99951.78;4991325;28;20051;-63
2021/11/03 00:06:16;;;;;;;6.95;2.50;;;;;;;13.35;75.54;99942.22;4996602;28;20050;-61
2021/11/03 00:08:43;;;;;;;3.40;1.90;;;;;;;13.25;75.32;99931.22;4986768;28;20078;-62
2021/11/03 00:11:11;;;;;;;7.97;2.37;;;;;;;13.38;74.90;99935.16;4987781;28;20138;-63
2021/11/03 00:13:38;;;;;;;6.07;2.53;;;;;;;13.36;74.69;99935.47;4977985;28;20547;-62
2021/11/03 00:16:06;;;;;;;6.07;3.13;;;;;;;13.37;74.41;99925.09;4993140;28;20494;-62
2021/11/03 00:18:34;;;;;;;6.47;2.50;;;;;;;13.20;74.22;99906.09;4987201;28;20043;-63
2021/11/03 00:21:04;;;;;;;6.10;2.43;;;;;;;13.35;74.26;99936.63;4995362;28;20082;-62
2021/11/03 00:23:31;;;;;;;7.63;2.70;;;;;;;13.27;74.13;99926.16;4991890;28;20129;-61
2021/11/03 00:25:58;;;;;;;6.57;2.53;;;;;;;13.39;74.32;99934.84;4992599;28;20052;-63
2021/11/03 00:28:26;;;;;;;5.53;2.40;;;;;;;13.35;74.23;99931.00;4979058;28;20125;-63
2021/11/03 00:30:56;;;;;;;4.73;2.83;;;;;;;13.41;74.11;99940.16;4989588;28;20145;-62
2021/11/03 00:33:24;;;;;;;3.30;1.70;;;;;;;13.41;74.11;99932.56;4990098;28;20133;-62
2021/11/03 00:35:52;;;;;;;17.50;2.50;;;;;;;13.34;74.17;99928.53;4995554;28;20552;-61
2021/11/03 00:38:20;;;;;;;4.97;1.97;;;;;;;13.41;74.33;99935.38;4986186;28;20490;-62
2021/11/03 00:40:49;;;;;;;4.50;2.30;;;;;;;13.42;74.30;99942.63;4992792;28;20081;-61
2021/11/03 00:43:16;;;;;;;6.77;2.37;;;;;;;13.34;74.26;99929.34;4995482;28;20085;-61
2021/11/03 00:45:44;;;;;;;9.80;3.43;;;;;;;13.40;74.27;99944.94;4990105;28;20525;-61
2021/11/03 00:48:11;;;;;;;8.43;2.30;;;;;;;13.36;74.01;99960.69;4986435;28;20490;-61
2021/11/03 00:50:38;;;;;;;7.97;2.60;;;;;;;13.36;74.01;99949.47;4992677;28;20046;-60
2021/11/03 00:53:06;;;;;;;8.33;2.87;;;;;;;13.35;73.96;99959.06;4991032;28;20077;-59
2021/11/03 00:55:34;;;;;;;8.13;2.50;;;;;;;13.27;73.80;99957.00;4992479;28;20483;-60
2021/11/03 00:58:00;;;;;;;4.77;2.30;;;;;;;13.24;73.79;99963.22;4987571;28;20096;-60
2021/11/03 01:00:27;;;;;;;7.43;2.47;;;;;;;13.23;73.84;99967.97;4985034;28;20133;-52
2021/11/03 01:02:55;;;;;;;9.67;2.30;;;;;;;13.10;73.82;99940.78;4990237;28;20086;-59
2021/11/03 01:05:24;;;;;;;7.43;3.30;;;;;;;13.17;73.90;99951.56;4992521;28;20046;-59
2021/11/03 01:07:51;;;;;;;6.53;2.75;;;;;;;13.17;73.84;99949.59;4982882;28;20125;-60
2021/11/03 01:10:20;;;;;;;5.30;2.50;;;;;;;13.07;73.91;99937.78;4990289;28;20085;-60
2021/11/03 01:12:47;;;;;;;5.40;2.25;;;;;;;13.09;73.95;99960.69;4986883;28;20104;-60
2021/11/03 01:15:18;;;;;;;7.73;2.80;;;;;;;13.08;73.95;99959.03;4987424;28;20090;-64
2021/11/03 01:17:50;;;;;;;10.37;2.20;;;;;;;12.97;73.81;99945.22;4984861;28;20058;-59
2021/11/03 01:20:17;;;;;;;5.17;2.73;;;;;;;12.76;73.85;99929.97;4985079;28;20606;-63
2021/11/03 01:22:44;;;;;;;4.20;2.30;;;;;;;12.95;73.88;99953.13;4982617;28;20133;-62
2021/11/03 01:25:13;;;;;;;4.47;2.20;;;;;;;12.94;73.84;99957.06;4992010;28;20498;-61
2021/11/03 01:27:40;;;;;;;4.40;1.90;;;;;;;12.83;73.67;99941.59;4987416;28;20046;-61
2021/11/03 01:30:10;;;;;;;6.73;2.50;;;;;;;12.86;73.77;99952.19;4982746;28;20061;-61
2021/11/03 01:32:37;;;;;;;7.90;2.50;;;;;;;12.77;73.81;99942.84;4993005;28;20506;-62
2021/11/03 01:35:06;;;;;;;8.53;2.43;;;;;;;12.67;73.99;99920.63;4990171;28;20142;-62
2021/11/03 01:37:33;;;;;;;5.70;2.40;;;;;;;12.72;73.81;99934.56;4990032;28;20069;-63
2021/11/03 01:40:00;;;;;;;6.90;2.60;;;;;;;12.87;74.02;99955.81;4985942;28;20332;-63
2021/11/03 01:42:27;;;;;;;9.43;3.20;;;;;;;12.85;73.96;99955.28;4986527;28;20137;-60
2021/11/03 01:44:54;;;;;;;7.13;2.97;;;;;;;12.80;74.12;99945.03;4982834;28;20050;-61
2021/11/03 01:47:46;;;;;;;6.03;2.70;;;;;;;12.64;74.52;99922.06;4989736;28;20052;-60
2021/11/03 01:50:19;;;;;;;9.63;2.70;;;;;;;12.76;74.24;99953.22;4988426;28;20082;-63
2021/11/03 01:52:50;;;;;;;8.30;2.67;;;;;;;12.76;74.14;99946.78;4988180;28;20129;-59
2021/11/03 01:55:17;;;;;;;7.97;3.43;;;;;;;12.76;74.18;99953.22;4990412;28;20093;-60
2021/11/03 01:57:50;;;;;;;7.03;2.87;;;;;;;12.73;74.40;99945.44;4974931;28;20047;-60
2021/11/03 02:00:25;;;;;;;5.73;2.67;;;;;;;12.70;74.52;99948.84;4975295;28;20507;-58
2021/11/03 02:03:05;;;;;;;6.17;2.37;;;;;;;12.73;74.41;99944.59;4982910;28;20050;-59
2021/11/03 02:05:33;;;;;;;6.07;2.13;;;;;;;12.64;74.43;99926.84;4982485;28;20541;-60
2021/11/03 02:08:01;;;;;;;7.50;2.67;;;;;;;12.69;74.45;99938.78;4988185;28;20133;-59
2021/11/03 02:10:29;;;;;;;5.07;2.07;;;;;;;12.72;74.43;99945.75;4985829;28;20136;-62
2021/11/03 02:12:57;;;;;;;6.93;2.77;;;;;;;12.68;74.28;99951.13;4991385;28;20077;-62
2021/11/03 02:15:24;;;;;;;7.80;2.67;;;;;;;12.70;74.16;99954.44;4979314;28;20051;-59
2021/11/03 02:17:51;;;;;;;5.27;2.70;;;;;;;12.66;74.07;99949.78;4984649;28;20121;-59
2021/11/03 02:20:23;;;;;;;12.23;2.80;;;;;;;12.63;73.87;99951.22;4983708;28;20085;-61
2021/11/03 02:23:01;;;;;;;9.40;2.60;;;;;;;12.62;73.83;99957.16;4984030;28;20466;-60
2021/11/03 02:25:44;;;;;;;10.63;2.23;;;;;;;12.56;73.76;99954.44;4978935;28;20130;-61
2021/11/03 02:28:11;;;;;;;8.27;2.60;;;;;;;12.55;73.70;99951.97;4986992;28;20129;-60
2021/11/03 02:30:38;;;;;;;10.27;2.40;;;;;;;12.49;73.88;99948.41;4980335;28;20463;-59
2021/11/03 02:33:14;;;;;;;7.20;2.97;;;;;;;12.52;74.22;99953.41;4984749;28;20062;-56
2021/11/03 02:35:49;;;;;;;6.60;2.70;;;;;;;12.56;74.46;99953.59;4983144;28;20086;-57
2021/11/03 02:38:26;;;;;;;5.90;2.50;;;;;;;12.52;74.59;99947.78;4981463;28;20543;-59
2021/11/03 02:41:08;;;;;;;4.63;2.27;;;;;;;12.42;75.00;99930.34;4981442;28;20136;-59
2021/11/03 02:43:45;;;;;;;8.70;2.70;;;;;;;12.59;74.95;99952.16;4983166;28;20069;-58
2021/11/03 02:46:14;;;;;;;8.77;2.90;;;;;;;12.64;74.76;99954.84;4989890;28;20082;-62
2021/11/03 02:48:42;;;;;;;4.10;2.50;;;;;;;12.66;74.65;99964.63;4989608;28;20058;-61
2021/11/03 02:51:13;;;;;;;6.43;2.47;;;;;;;12.69;74.97;99957.56;4981907;28;20138;-62
2021/11/03 02:53:48;;;;;;;9.87;2.67;;;;;;;12.70;74.93;99959.22;4987350;28;20517;-61
2021/11/03 02:56:19;;;;;;;6.80;3.07;;;;;;;12.73;74.68;99959.44;4984317;28;20077;-60
2021/11/03 02:58:47;;;;;;;7.60;2.47;;;;;;;12.71;74.81;99955.28;4980663;28;20070;-59
2021/11/03 03:01:39;;;;;;;5.27;1.87;;;;;;;12.64;75.23;99949.25;4981575;28;20126;-60
2021/11/03 03:04:09;;;;;;;8.23;3.80;;;;;;;12.63;74.58;99936.41;4985133;28;20050;-58
2021/11/03 03:06:36;;;;;;;;;;;;;;;12.58;75.16;99928.94;4974761;28;20051;-59
2021/11/03 03:09:05;;;;;;;15.20;5.33;;;;;;;12.53;74.67;99924.25;4987666;28;20426;-59
2021/11/03 03:11:34;;;;;;;12.63;4.10;;;;;;;12.59;74.72;99927.78;4982138;28;20125;-59
2021/11/03 03:14:02;;;;;;;12.57;4.60;;;;;;;12.55;74.62;99930.38;4983564;28;20137;-59
2021/11/03 03:16:29;;;;;;;9.73;3.93;;;;;;;12.51;74.46;99932.13;4982142;28;20046;-59
2021/11/03 03:18:56;;;;;;;14.53;4.80;;;;;;;12.49;74.37;99930.78;4988603;28;20054;-59
2021/11/03 03:21:26;;;;;;;6.28;3.40;;;;;;;12.36;74.11;99921.19;4985304;28;20054;-59
2021/11/03 03:23:55;;;;;;;10.17;4.13;;;;;;;12.40;73.79;99933.44;4983258;28;20046;-59
2021/11/03 03:26:22;;;;;;;7.93;3.27;;;;;;;12.30;73.65;99928.84;4986540;28;20070;-59
2021/11/03 03:28:50;;;;;;;11.30;3.93;;;;;;;12.32;73.73;99934.16;4990313;28;20557;-59
2021/11/03 03:31:18;;;;;;;7.67;3.13;;;;;;;12.07;73.67;99902.69;4979419;28;20074;-58
2021/11/03 03:33:47;;;;;;;9.93;3.10;;;;;;;12.25;73.66;99942.13;4986377;28;20102;-59
2021/11/03 03:36:14;;;;;;;13.53;3.97;;;;;;;12.20;73.63;99953.41;4978647;28;20129;-59
2021/11/03 03:38:41;;;;;;;9.30;3.90;;;;;;;12.03;73.47;99926.84;4983149;28;20716;-59
2021/11/03 03:41:10;;;;;;;8.80;3.43;;;;;;;12.09;73.39;99947.16;4979924;28;20797;-59
2021/11/03 03:43:38;;;;;;;9.83;4.80;;;;;;;11.81;73.32;99915.41;4989176;28;20047;-59
2021/11/03 03:46:05;;;;;;;11.77;4.67;;;;;;;11.96;73.65;99957.16;4977943;28;20125;-59
2021/11/03 03:48:32;;;;;;;10.63;4.00;;;;;;;11.83;73.86;99944.75;4989052;28;20125;-59
2021/11/03 03:50:59;;;;;;;8.27;4.00;;;;;;;11.93;73.78;99963.38;4982927;28;20089;-59
2021/11/03 03:53:26;;;;;;;9.17;3.90;;;;;;;11.86;74.17;99954.50;4984101;28;20455;-59
2021/11/03 03:56:10;;;;;;;12.97;4.00;;;;;;;11.84;74.23;99952.03;4984501;28;20513;-59
2021/11/03 03:58:37;;;;;;;11.17;3.80;;;;;;;11.94;74.06;99965.03;4986279;28;20089;-59
2021/11/03 04:01:04;;;;;;;10.47;4.10;;;;;;;11.96;73.99;99962.75;4981954;28;20101;-58
2021/11/03 04:03:33;;;;;;;8.13;3.83;;;;;;;11.92;73.89;99950.50;4975551;28;20056;-58
2021/11/03 04:06:00;;;;;;;9.00;3.50;;;;;;;11.88;73.67;99955.03;4987453;28;20049;-59
2021/11/03 04:08:27;;;;;;;10.57;3.87;;;;;;;11.94;73.39;99959.44;4983925;28;20416;-59
2021/11/03 04:10:54;;;;;;;10.20;3.80;;;;;;;11.85;73.46;99955.66;4978835;28;20082;-60
2021/11/03 04:13:22;;;;;;;8.03;3.67;;;;;;;11.90;73.65;99950.00;4978241;28;20081;-60
2021/11/03 04:15:51;;;;;;;14.00;4.60;;;;;;;11.85;73.65;99952.84;4985732;28;20051;-59
2021/11/03 04:18:18;;;;;;;10.47;3.90;;;;;;;11.79;73.49;99940.03;4986075;28;20039;-59
2021/11/03 04:20:45;;;;;;;11.40;4.60;;;;;;;11.82;73.65;99964.63;4979599;28;20130;-60
2021/11/03 04:23:12;;;;;;;9.53;4.30;;;;;;;11.59;73.57;99933.66;4986431;28;20092;-60
2021/11/03 04:25:39;;;;;;;5.77;3.53;;;;;;;11.81;73.55;99974.16;4990909;28;20085;-59
2021/11/03 04:28:07;;;;;;;11.00;4.37;;;;;;;11.74;73.53;99965.31;4983382;28;20577;-60
2021/11/03 04:30:34;;;;;;;10.53;3.70;;;;;;;11.78;73.58;99961.59;4990363;28;20445;-59
2021/11/03 04:33:02;;;;;;;10.37;3.50;;;;;;;11.74;73.71;99956.91;4983899;28;20458;-59
2021/11/03 04:35:29;;;;;;;12.87;4.63;;;;;;;11.76;73.42;99971.41;4986321;28;20134;-59
2021/11/03 04:37:56;;;;;;;11.40;3.83;;;;;;;11.73;73.63;99974.84;4976434;28;20134;-60
2021/11/03 04:40:26;;;;;;;8.03;3.90;;;;;;;11.69;73.54;99969.03;4988789;28;20082;-59
2021/11/03 04:42:54;;;;;;;9.00;3.85;;;;;;;11.70;73.57;99978.25;4978787;28;20526;-58
2021/11/03 04:45:21;;;;;;;7.97;3.57;;;;;;;11.69;73.66;99969.03;4983209;28;20145;-58
2021/11/03 04:47:49;;;;;;;9.80;3.97;;;;;;;11.57;73.74;99969.47;4988753;28;20088;-57
2021/11/03 04:50:23;;;;;;;11.40;4.07;;;;;;;11.58;73.72;99971.13;4987591;28;20126;-56
2021/11/03 04:52:50;;;;;;;11.40;3.50;;;;;;;11.56;73.92;99976.19;4988234;28;20046;-58
2021/11/03 04:55:18;;;;;;;13.50;4.30;;;;;;;11.62;73.88;99983.38;4986819;28;20086;-58
2021/11/03 04:57:50;;;;;;;8.93;3.40;;;;;;;11.66;74.19;99982.75;4990991;28;20129;-59
2021/11/03 05:00:22;;;;;;;16.77;4.27;;;;;;;11.59;74.15;99988.75;4992244;28;20568;-58
2021/11/03 05:02:49;;;;;;;6.03;3.37;;;;;;;11.54;74.00;99984.03;4977984;28;20814;-59
2021/11/03 05:05:16;;;;;;;9.03;3.70;;;;;;;11.64;74.04;99999.84;4993337;28;20128;-59
2021/11/03 05:07:43;;;;;;;4.57;2.50;;;;;;;11.55;74.00;99991.28;4983449;28;20122;-59
2021/11/03 05:10:10;;;;;;;9.83;2.67;;;;;;;11.52;74.02;99997.50;4988070;28;20554;-59
2021/11/03 05:12:37;;;;;;;4.10;2.63;;;;;;;11.58;74.03;100013.06;4988165;28;20510;-59
2021/11/03 05:15:04;;;;;;;7.07;2.70;;;;;;;11.66;74.19;100014.38;4979582;28;20124;-59
2021/11/03 05:17:32;;;;;;;9.50;3.50;;;;;;;11.67;74.38;100015.22;4990769;28;20126;-59
2021/11/03 05:19:58;;;;;;;5.23;2.43;;;;;;;11.68;74.56;100012.09;4989247;28;20557;-59
2021/11/03 05:22:27;;;;;;;7.27;3.70;;;;;;;11.45;74.21;99963.47;4979038;28;20126;-60
2021/11/03 05:24:55;;;;;;;8.00;3.07;;;;;;;11.77;74.06;100009.47;4988619;28;20137;-60
2021/11/03 05:27:23;;;;;;;9.17;2.97;;;;;;;11.80;73.83;100017.25;4986470;28;20130;-60
2021/11/03 05:29:51;;;;;;;6.27;2.23;;;;;;;11.74;73.83;100010.06;4983142;28;20086;-60
2021/11/03 05:32:17;;;;;;;7.20;3.40;;;;;;;11.69;73.76;100024.09;4987810;28;20078;-60
2021/11/03 05:34:44;;;;;;;10.47;3.37;;;;;;;11.73;73.78;100031.63;4980651;28;20122;-60
2021/11/03 05:37:17;;;;;;;10.93;3.33;;;;;;;11.68;73.68;100028.03;4973051;28;20133;-58
2021/11/03 05:39:44;;;;;;;8.27;3.50;;;;;;;11.70;73.74;100043.41;4990035;28;20043;-58
2021/11/03 05:42:11;;;;;;;7.37;3.50;;;;;;;11.55;73.69;100019.25;4988537;28;20293;-59
2021/11/03 05:44:38;;;;;;;7.43;3.20;;;;;;;11.59;73.72;100031.53;4982286;28;20078;-57
2021/11/03 05:47:07;;;;;;;7.27;2.53;;;;;;;11.65;73.81;100040.66;4985481;28;20086;-59
2021/11/03 05:49:35;;;;;;;6.23;2.20;;;;;;;11.67;73.74;100037.59;4979108;28;20051;-58
2021/11/03 05:52:05;;;;;;;5.17;2.57;;;;;;;11.63;73.78;100037.34;4991185;28;20462;-59
2021/11/03 05:54:33;;;;;;;6.00;3.00;;;;;;;11.60;73.91;100049.97;4985097;28;20043;-61
2021/11/03 05:57:02;;;;;;;5.53;3.07;;;;;;;11.61;73.84;100045.19;4984938;28;20161;-59
2021/11/03 05:59:30;;;;;;;5.80;3.13;;;;;;;11.56;74.16;100043.31;4974345;28;20101;-58
2021/11/03 06:01:57;;;;;;;8.53;3.20;;;;;;;11.53;74.25;100043.06;4980734;28;20304;-58
2021/11/03 06:04:24;;;;;;;9.30;3.43;;;;;;;11.58;74.62;100051.38;4986279;28;20093;-58
2021/11/03 06:06:51;;;;;;;7.83;3.10;;;;;;;11.56;74.81;100065.69;4986326;28;20108;-58
2021/11/03 06:09:18;;;;;;;10.57;3.73;;;;;;;11.60;75.14;100068.72;4988667;28;20050;-58
2021/11/03 06:11:47;;;;;;;6.17;3.40;;;;;;;11.60;75.36;100077.94;4981487;28;20559;-58
2021/11/03 06:14:14;;;;;;;5.47;2.90;;;;;;;11.46;75.33;100054.63;4980862;28;20046;-57
2021/11/03 06:16:40;;;;;;;7.37;2.70;;;;;;;11.59;75.42;100079.06;4989609;28;20157;-57
2021/11/03 06:19:08;;;;;;;5.83;2.63;;;;;;;11.62;75.34;100078.47;4990628;28;20057;-60
2021/11/03 06:21:35;;;;;;;6.53;2.70;;;;;;;11.66;75.32;100075.91;4985964;28;20199;-58
2021/11/03 06:24:02;;;;;;;4.63;2.47;;;;;;;11.56;75.34;100051.69;4986722;28;20141;-59
2021/11/03 06:26:29;;;;;;;4.57;2.13;;;;;;;11.71;75.59;100084.22;4979111;28;20050;-56
2021/11/03 06:28:56;;;;;;;5.43;2.20;;;;;;;11.68;75.66;100067.22;4984197;28;20093;-57
2021/11/03 06:31:22;;;;;;;8.13;2.83;;;;;;;11.73;75.43;100079.16;4982840;28;20077;-60
2021/11/03 06:33:51;;;;;;;5.47;2.57;;;;;;;11.77;75.51;100087.78;4984985;28;20073;-61
2021/11/03 06:36:19;;;;;;;7.40;3.10;;;;;;;11.76;75.49;100086.97;4979634;28;20129;-49
2021/11/03 06:38:47;;;;;;;5.37;3.17;;;;;;;11.66;75.60;100066.66;4988113;28;20058;-57
2021/11/03 06:41:15;;;;;;;9.30;2.87;;;;;;;11.68;75.42;100073.63;4983118;28;20097;-55
2021/11/03 06:43:43;;;;;;;6.30;3.23;;;;;;;11.72;75.55;100091.47;4985265;28;20590;-48
2021/11/03 06:46:10;;;;;;;8.43;2.60;;;;;;;11.64;75.45;100055.78;4983553;28;20085;-54
2021/11/03 06:48:38;;;;;;;4.77;2.07;;;;;;;11.58;75.56;100041.03;4980117;28;20133;-56
2021/11/03 06:51:04;;;;;;;8.10;2.67;;;;;;;11.63;75.31;100057.75;4985781;28;20125;-58
2021/11/03 06:53:33;;;;;;;5.57;2.17;;;;;;;11.48;75.13;100059.91;4985456;28;20050;-56
2021/11/03 06:56:00;;;;;;;4.83;2.07;;;;;;;11.40;75.00;100069.78;4985097;28;20050;-59
2021/11/03 06:58:30;;;;;;;6.30;2.30;;;;;;;11.42;74.71;100059.16;4984488;28;20136;-60
2021/11/03 07:00:58;;;;;;;4.20;2.13;;;;;;;11.44;74.53;100068.06;4979245;28;20130;-60
2021/11/03 07:03:27;;;;;;;6.37;2.20;;;;;;;11.44;74.15;100068.06;4982124;28;20046;-60
2021/11/03 07:05:55;;;;;;;6.63;2.35;;;;;;;11.45;73.94;100072.50;4983891;28;20137;-60
2021/11/03 07:08:24;;;;;;;7.83;2.00;;;;;;;11.36;73.69;100072.34;4982220;28;20351;-60
2021/11/03 07:10:54;;;;;;;6.93;2.60;;;;;;;11.33;73.92;100075.72;4987603;28;20474;-60
2021/11/03 07:13:23;;;;;;;5.93;2.23;;;;;;;11.29;74.12;100071.06;4976808;28;20129;-60
2021/11/03 07:15:51;;;;;;;3.13;2.10;;;;;;;11.22;74.08;100070.56;4989681;28;20151;-60
2021/11/03 07:18:19;;;;;;;5.03;1.70;;;;;;;11.11;74.44;100076.28;4985637;28;20137;-60
2021/11/03 07:20:47;;;;;;;3.40;1.97;;;;;;;11.07;74.76;100083.56;4982241;28;20066;-51
2021/11/03 07:23:22;;;;;;;6.13;2.77;;;;;;;10.99;74.68;100072.22;4982916;28;20039;-50
2021/11/03 07:25:53;;;;;;;4.73;2.00;;;;;;;10.93;75.05;100085.38;4982022;28;20065;-53
2021/11/03 07:28:20;;;;;;;3.67;2.10;;;;;;;10.85;75.42;100083.25;4978471;28;20149;-49
2021/11/03 07:30:47;;;;;;;6.83;2.23;;;;;;;10.77;75.72;100087.50;4988271;28;20050;-51
2021/11/03 07:33:14;;;;;;;5.53;2.30;;;;;;;10.81;75.97;100087.75;4980444;28;20050;-53
2021/11/03 07:35:42;;;;;;;3.87;1.83;;;;;;;10.91;76.14;100098.84;4980439;28;20121;-52
2021/11/03 07:38:10;;;;;;;4.50;2.13;;;;;;;11.09;76.25;100089.69;4994828;28;23587;-52
2021/11/03 07:40:41;;;;;;;8.47;3.23;;;;;;;11.25;76.28;100087.59;4979242;28;20062;-53
2021/11/03 07:43:10;;;;;;;7.67;3.23;;;;;;;11.20;76.29;100070.84;4977694;28;20158;-52
2021/11/03 07:45:38;;;;;;;8.93;3.33;;;;;;;11.38;76.49;100086.00;4981991;28;20264;-53
2021/11/03 07:48:06;;;;;;;6.17;3.17;;;;;;;11.51;76.60;100084.47;4984534;28;20230;-50
2021/11/03 07:50:39;;;;;;;5.87;2.90;;;;;;;11.57;76.46;100083.28;4983363;28;20079;-51
2021/11/03 07:53:07;;;;;;;9.83;4.53;;;;;;;11.58;76.55;100084.94;4982211;28;20133;-51
2021/11/03 07:55:35;;;;;;;7.40;4.43;;;;;;;11.78;76.70;100078.25;4980953;28;20459;-48
2021/11/03 07:58:03;;;;;;;7.17;3.37;;;;;;;12.13;77.10;100106.91;4978893;28;20135;-53
2021/11/03 08:00:35;;;;;;;8.20;4.07;;;;;;;12.18;76.83;100098.44;4986405;28;20042;-50
2021/11/03 08:03:03;;;;;;;8.43;3.90;;;;;;;12.18;76.66;100098.44;4985602;28;20078;-50
2021/11/03 08:05:30;;;;;;;23.00;4.67;;;;;;;12.11;76.59;100117.59;4987132;28;20058;-49
2021/11/03 08:08:00;;;;;;;14.63;3.87;;;;;;;11.81;76.58;100105.63;4979920;28;20642;-53
2021/11/03 08:10:28;;;;;;;20.38;4.57;;;;;;;11.76;77.09;100125.28;4991647;28;20663;-53
2021/11/03 08:12:57;;;;;;;16.57;5.30;;;;;;;11.73;77.48;100125.91;4991570;28;20469;-52
2021/11/03 08:15:25;;;;;;;11.97;4.93;;;;;;;11.70;77.63;100121.72;4987541;28;20175;-54
2021/11/03 08:17:54;;;;;;;17.67;5.13;;;;;;;11.54;77.96;100095.06;4974557;28;20082;-52
2021/11/03 08:20:24;;;;;;;16.77;6.13;;;;;;;11.81;77.84;100134.44;4989397;28;20502;-52
2021/11/03 08:22:53;;;;;;;12.00;5.53;;;;;;;12.09;78.51;100129.91;4982707;28;20466;-52
2021/11/03 08:25:20;;;;;;;7.50;4.67;;;;;;;12.35;78.50;100149.16;4993671;28;20137;-53
2021/11/03 08:27:48;;;;;;;10.93;4.97;;;;;;;12.87;79.32;100141.59;4994077;28;20038;-52
2021/11/03 08:30:16;;;;;;;5.67;3.87;;;;;;;13.43;79.19;100151.84;4993115;28;20086;-49
2021/11/03 08:32:56;;;;;;;13.60;4.70;;;;;;;13.85;78.52;100160.31;4989338;28;20084;-52
2021/11/03 08:35:25;;;;;;;;;;;;;;;13.97;77.06;100171.81;4994465;28;20073;-50
2021/11/03 08:37:56;;;;;;;7.40;4.05;;;;;;;14.68;78.90;100161.81;4981943;28;19965;-52
2021/11/03 08:40:23;;;;;;;8.18;3.80;;;;;;;15.59;78.72;100182.31;4990677;28;20493;-52
2021/11/03 08:42:53;;;;;;;7.80;3.63;;;;;;;16.10;77.90;100176.09;4985888;28;20074;-50
2021/11/03 08:45:20;;;;;;;7.15;3.67;;;;;;;16.38;76.48;100197.53;4977816;28;20130;-53
2021/11/03 08:47:50;;;;;;;6.57;3.33;;;;;;;16.85;76.12;100200.59;4984060;28;20498;-54
2021/11/03 08:50:21;;;;;;;7.25;3.78;;;;;;;17.44;75.32;100195.25;4986931;28;20538;-52
2021/11/03 08:52:48;;;;;;;7.70;4.30;;;;;;;18.29;74.54;100191.59;4989395;28;20078;-53
2021/11/03 08:55:15;;;;;;;4.82;3.88;;;;;;;18.96;72.62;100187.81;4990069;28;20089;-56
2021/11/03 08:57:42;;;;;;;7.70;4.22;;;;;;;19.08;71.34;100178.59;4982945;28;20511;-54
2021/11/03 09:00:16;;;;;;;6.82;3.47;;;;;;;19.54;70.35;100194.44;4995618;28;20138;-54
2021/11/03 09:02:43;;;;;;;5.45;3.28;;;;;;;20.11;68.96;100209.78;4992759;28;20089;-54
2021/11/03 09:05:10;;;;;;;7.40;3.42;;;;;;;20.63;67.68;100205.44;4995405;28;20380;-52
2021/11/03 09:07:37;;;;;;;4.57;3.40;;;;;;;21.50;66.47;100219.84;4991297;28;20454;-52
2021/11/03 09:10:08;;;;;;;4.82;3.20;;;;;;;22.35;64.21;100216.81;4989360;28;20537;-52
2021/11/03 09:12:35;;;;;;;5.07;3.30;;;;;;;23.07;62.86;100230.72;4990595;28;20125;-54
2021/11/03 09:15:02;;;;;;;7.43;3.38;;;;;;;23.61;61.23;100219.25;4994682;28;20133;-51
2021/11/03 09:17:30;;;;;;;4.57;3.30;;;;;;;23.75;60.65;100207.31;4990380;28;20502;-52
2021/11/03 09:19:57;;;;;;;3.60;3.10;;;;;;;24.40;59.02;100219.88;4988749;28;20145;-53
2021/11/03 09:22:24;;;;;;;9.05;3.22;;;;;;;25.01;57.54;100221.66;4984582;28;20050;-54
2021/11/03 09:24:51;;;;;;;5.70;2.58;;;;;;;25.29;56.24;100227.78;4984946;28;20514;-54
2021/11/03 09:27:18;;;;;;;6.80;3.40;;;;;;;25.70;55.27;100227.84;4983879;28;20431;-53
2021/11/03 09:29:51;;;;;;;9.98;3.92;;;;;;;26.30;53.94;100228.91;4974670;28;20093;-51
2021/11/03 09:32:21;;;;;;;7.85;3.95;;;;;;;26.91;52.99;100221.63;4984871;28;20059;-55
2021/11/03 09:34:50;;;;;;;5.43;3.00;;;;;;;27.29;51.03;100228.00;4985749;28;20082;-54
2021/11/03 09:37:20;;;;;;;7.50;3.47;;;;;;;27.62;50.08;100227.72;4983759;28;20057;-53
2021/11/03 09:39:52;;;;;;;4.57;2.70;;;;;;;27.94;48.66;100231.94;4983634;28;20046;-51
2021/11/03 09:42:22;;;;;;;6.70;2.90;;;;;;;28.23;48.12;100222.09;4988310;28;20081;-53
2021/11/03 09:44:53;;;;;;;3.90;3.03;;;;;;;28.49;47.20;100229.53;4981290;28;20073;-56
2021/11/03 09:47:25;;;;;;;4.15;3.05;;;;;;;28.81;46.48;100243.03;4990481;28;20089;-53
2021/11/03 09:50:01;;;;;;;7.22;3.72;;;;;;;29.01;45.01;100235.66;4979979;28;20050;-53
2021/11/03 09:52:36;;;;;;;4.53;3.10;;;;;;;28.83;44.50;100231.16;4986396;28;20058;-52
2021/11/03 09:55:14;;;;;;;6.10;3.00;;;;;;;27.96;45.24;100238.06;4981988;28;20132;-52
2021/11/03 09:57:46;;;;;;;6.53;2.67;;;;;;;27.61;43.80;100245.31;4989591;28;20137;-53
2021/11/03 10:00:36;;;;;;;4.57;2.10;;;;;;;27.36;43.14;100245.22;4983681;28;20109;-54
2021/11/03 10:03:18;;;;;;;2.33;1.60;;;;;;;26.86;44.11;100237.13;4986747;28;20057;-52
2021/11/03 10:05:55;;;;;;;4.22;1.92;;;;;;;26.77;43.62;100235.81;4986343;28;20307;-54
2021/11/03 10:08:26;;;;;;;7.22;5.13;;;;;;;26.87;40.92;100230.19;4984592;28;20182;-51
2021/11/03 10:11:05;;;;;;;3.15;2.25;;;;;;;26.92;40.00;100235.53;4980899;28;20046;-53
2021/11/03 10:13:34;;;;;;;;;;;;;;;26.12;45.84;100245.88;4987300;28;20058;-51
2021/11/03 10:16:15;;;;;;;6.40;1.77;;;;;;;26.46;41.45;100243.75;4983053;28;19958;-51
2021/11/03 10:18:51;;;;;;;2.83;1.88;;;;;;;26.60;41.57;100243.91;4986577;28;20052;-52
2021/11/03 10:21:52;;;;;;;4.82;3.53;;;;;;;26.47;41.85;100239.72;4987706;28;20133;-52
2021/11/03 10:24:20;;;;;;;12.65;3.58;;;;;;;26.77;39.73;100247.28;4980783;28;20133;-53
2021/11/03 10:27:21;;;;;;;3.03;1.85;;;;;;;26.72;40.64;100251.34;4982808;28;20072;-50
2021/11/03 10:30:14;;;;;;;2.92;2.13;;;;;;;26.37;39.47;100228.97;4953608;28;20125;-53
2021/11/03 10:32:43;;;;;;;3.55;1.58;;;;;;;25.93;39.10;100238.34;4982275;28;20129;-51
2021/11/03 10:36:00;;;;;;;5.88;1.60;;;;;;;24.87;40.89;100230.84;4985987;28;20046;-52
2021/11/03 10:38:41;;;;;;;3.85;2.03;;;;;;;24.13;41.89;100243.47;4977596;28;20137;-53
2021/11/03 10:41:21;;;;;;;2.13;1.85;;;;;;;24.01;42.22;100240.81;4982664;28;20069;-53
2021/11/03 10:44:20;;;;;;;4.80;2.00;;;;;;;24.38;42.27;100234.53;4981412;28;20046;-54
2021/11/03 10:47:08;;;;;;;4.82;1.40;;;;;;;25.14;39.38;100242.28;4979796;28;20046;-48
2021/11/03 10:49:54;;;;;;;6.22;2.20;;;;;;;24.18;40.97;100242.34;4986756;28;20102;-52
2021/11/03 10:52:38;;;;;;;5.43;1.95;;;;;;;24.33;40.68;100210.00;4986769;28;20050;-53
2021/11/03 10:55:34;;;;;;;3.67;1.85;;;;;;;25.38;40.26;100232.38;4982309;28;20133;-50
2021/11/03 10:58:26;;;;;;;2.38;1.50;;;;;;;26.00;38.83;100238.44;4934695;28;20066;-52
2021/11/03 11:01:24;;;;;;;3.38;1.42;;;;;;;26.46;38.14;100232.28;4979633;28;20049;-53
2021/11/03 11:04:06;;;;;;;2.63;1.58;;;;;;;26.99;37.31;100237.63;4990010;28;20050;-51
2021/11/03 11:06:46;;;;;;;7.65;1.98;;;;;;;27.71;36.31;100232.25;4990213;28;20050;-53
2021/11/03 11:09:41;;;;;;;4.13;1.48;;;;;;;28.29;35.29;100234.00;4984127;28;20086;-50
2021/11/03 11:12:38;;;;;;;2.38;1.60;;;;;;;28.63;34.72;100240.19;4985381;28;20506;-53
2021/11/03 11:15:25;;;;;;;1.70;1.60;;;;;;;28.99;34.31;100234.38;4985249;28;20046;-51
2021/11/03 11:18:25;;;;;;;3.35;1.65;;;;;;;29.39;33.58;100238.00;4967917;28;20137;-52
2021/11/03 11:20:59;;;;;;;4.05;2.10;;;;;;;29.69;32.76;100231.72;4978552;28;20084;-54
2021/11/03 11:23:36;;;;;;;2.88;0.88;;;;;;;29.11;32.93;100221.66;4981926;28;20069;-53
2021/11/03 11:26:24;;;;;;;4.65;1.63;;;;;;;28.80;33.96;100227.03;4979912;28;20141;-51
2021/11/03 11:29:01;;;;;;;3.90;1.00;;;;;;;28.71;32.47;100227.44;4995597;28;20055;-54
2021/11/03 11:31:51;;;;;;;1.67;0.90;;;;;;;27.03;34.68;100224.13;4979287;28;20129;-55
2021/11/03 11:34:37;;;;;;;3.97;1.85;;;;;;;27.49;33.47;100222.72;4987589;28;20653;-51
2021/11/03 11:37:25;;;;;;;4.63;1.70;;;;;;;28.41;33.02;100219.28;4986030;28;20148;-54
2021/11/03 11:39:57;;;;;;;1.83;1.73;;;;;;;28.88;31.38;100230.72;4978065;28;20129;-54
2021/11/03 11:42:33;;;;;;;1.77;0.90;;;;;;;29.18;31.02;100227.38;4983424;28;20558;-53
2021/11/03 11:45:03;;;;;;;1.95;1.25;;;;;;;29.21;30.79;100215.06;4984930;28;20053;-53
2021/11/03 11:47:37;;;;;;;3.63;0.70;;;;;;;28.14;32.17;100220.84;4988080;28;20135;-54